sensor_id;sensor_type;location;lat;lon;timestamp;P1;durP1;ratioP1;P2;durP2;ratioP2
66118;SDS011;52912;48.564;9.302;2022-11-13T00:00:22;123.93;;;14.30;;
66118;SDS011;52912;48.564;9.302;2022-11-13T00:02:47;62.95;;;15.50;;
66118;SDS011;52912;48.564;9.302;2022-11-13T00:05:13;42.15;;;12.73;;
66118;SDS011;52912;48.564;9.302;2022-11-13T00:07:38;51.45;;;13.38;;
66118;SDS011;52912;48.564;9.302;2022-11-13T00:10:04;34.15;;;12.05;;
66118;SDS011;52912;48.564;9.302;2022-11-13T00:12:30;48.85;;;12.63;;
66118;SDS011;52912;48.564;9.302;2022-11-13T00:14:57;21.67;;;11.20;;
66118;SDS011;52912;48.564;9.302;2022-11-13T00:17:22;43.10;;;10.18;;
66118;SDS011;52912;48.564;9.302;2022-11-13T00:19:48;59.30;;;12.15;;
66118;SDS011;52912;48.564;9.302;2022-11-13T00:22:13;20.15;;;10.70;;
66118;SDS011;52912;48.564;9.302;2022-11-13T00:24:39;27.48;;;10.30;;
66118;SDS011;52912;48.564;9.302;2022-11-13T00:27:04;21.38;;;10.15;;
66118;SDS011;52912;48.564;9.302;2022-11-13T00:29:30;19.05;;;10.43;;
66118;SDS011;52912;48.564;9.302;2022-11-13T00:31:56;27.60;;;9.38;;
66118;SDS011;52912;48.564;9.302;2022-11-13T00:34:22;37.47;;;9.30;;
66118;SDS011;52912;48.564;9.302;2022-11-13T00:36:47;57.13;;;10.60;;
66118;SDS011;52912;48.564;9.302;2022-11-13T00:39:13;48.45;;;10.07;;
66118;SDS011;52912;48.564;9.302;2022-11-13T00:41:38;33.08;;;10.25;;
66118;SDS011;52912;48.564;9.302;2022-11-13T00:44:04;65.68;;;10.60;;
66118;SDS011;52912;48.564;9.302;2022-11-13T00:46:29;31.25;;;9.07;;
66118;SDS011;52912;48.564;9.302;2022-11-13T00:48:56;72.65;;;9.23;;
66118;SDS011;52912;48.564;9.302;2022-11-13T00:51:22;24.42;;;8.57;;
66118;SDS011;52912;48.564;9.302;2022-11-13T00:53:47;35.85;;;8.48;;
66118;SDS011;52912;48.564;9.302;2022-11-13T00:56:13;17.15;;;9.73;;
66118;SDS011;52912;48.564;9.302;2022-11-13T00:58:38;38.88;;;10.25;;
66118;SDS011;52912;48.564;9.302;2022-11-13T01:01:04;38.47;;;9.48;;
66118;SDS011;52912;48.564;9.302;2022-11-13T01:03:32;45.92;;;10.13;;
66118;SDS011;52912;48.564;9.302;2022-11-13T01:05:58;85.72;;;10.40;;
66118;SDS011;52912;48.564;9.302;2022-11-13T01:08:24;30.00;;;9.02;;
66118;SDS011;52912;48.564;9.302;2022-11-13T01:10:50;42.92;;;9.57;;
66118;SDS011;52912;48.564;9.302;2022-11-13T01:13:15;97.15;;;10.75;;
66118;SDS011;52912;48.564;9.302;2022-11-13T01:15:41;102.78;;;11.13;;
66118;SDS011;52912;48.564;9.302;2022-11-13T01:18:08;29.35;;;9.65;;
66118;SDS011;52912;48.564;9.302;2022-11-13T01:20:33;71.95;;;10.60;;
66118;SDS011;52912;48.564;9.302;2022-11-13T01:23:00;28.25;;;10.45;;
66118;SDS011;52912;48.564;9.302;2022-11-13T01:25:26;99.13;;;10.25;;
66118;SDS011;52912;48.564;9.302;2022-11-13T01:27:52;80.10;;;10.32;;
66118;SDS011;52912;48.564;9.302;2022-11-13T01:30:18;79.15;;;10.23;;
66118;SDS011;52912;48.564;9.302;2022-11-13T01:32:43;24.88;;;9.05;;
66118;SDS011;52912;48.564;9.302;2022-11-13T01:35:09;69.53;;;8.68;;
66118;SDS011;52912;48.564;9.302;2022-11-13T01:37:34;51.50;;;9.45;;
66118;SDS011;52912;48.564;9.302;2022-11-13T01:40:01;21.33;;;7.72;;
66118;SDS011;52912;48.564;9.302;2022-11-13T01:42:27;25.60;;;7.90;;
66118;SDS011;52912;48.564;9.302;2022-11-13T01:44:53;19.30;;;7.45;;
66118;SDS011;52912;48.564;9.302;2022-11-13T01:47:19;24.58;;;7.22;;
66118;SDS011;52912;48.564;9.302;2022-11-13T01:49:47;33.30;;;8.82;;
66118;SDS011;52912;48.564;9.302;2022-11-13T01:52:16;13.93;;;7.73;;
66118;SDS011;52912;48.564;9.302;2022-11-13T01:54:45;31.88;;;8.10;;
66118;SDS011;52912;48.564;9.302;2022-11-13T01:57:13;33.30;;;8.82;;
66118;SDS011;52912;48.564;9.302;2022-11-13T01:59:42;59.00;;;8.15;;
66118;SDS011;52912;48.564;9.302;2022-11-13T02:02:12;34.45;;;8.23;;
66118;SDS011;52912;48.564;9.302;2022-11-13T02:04:37;16.08;;;7.90;;
66118;SDS011;52912;48.564;9.302;2022-11-13T02:07:03;25.77;;;7.57;;
66118;SDS011;52912;48.564;9.302;2022-11-13T02:09:32;43.47;;;8.40;;
66118;SDS011;52912;48.564;9.302;2022-11-13T02:12:00;38.78;;;9.02;;
66118;SDS011;52912;48.564;9.302;2022-11-13T02:14:28;50.35;;;8.60;;
66118;SDS011;52912;48.564;9.302;2022-11-13T02:16:55;18.17;;;7.68;;
66118;SDS011;52912;48.564;9.302;2022-11-13T02:19:25;30.77;;;9.25;;
66118;SDS011;52912;48.564;9.302;2022-11-13T02:21:56;41.38;;;8.00;;
66118;SDS011;52912;48.564;9.302;2022-11-13T02:24:29;33.40;;;8.52;;
66118;SDS011;52912;48.564;9.302;2022-11-13T02:26:57;38.75;;;8.88;;
66118;SDS011;52912;48.564;9.302;2022-11-13T02:31:51;41.35;;;7.47;;
66118;SDS011;52912;48.564;9.302;2022-11-13T02:34:16;56.22;;;9.57;;
66118;SDS011;52912;48.564;9.302;2022-11-13T02:36:42;85.38;;;10.82;;
66118;SDS011;52912;48.564;9.302;2022-11-13T02:39:08;176.57;;;11.60;;
66118;SDS011;52912;48.564;9.302;2022-11-13T02:41:37;163.43;;;10.65;;
66118;SDS011;52912;48.564;9.302;2022-11-13T02:44:02;207.68;;;12.15;;
66118;SDS011;52912;48.564;9.302;2022-11-13T02:46:28;143.98;;;10.45;;
66118;SDS011;52912;48.564;9.302;2022-11-13T02:48:54;185.50;;;12.50;;
66118;SDS011;52912;48.564;9.302;2022-11-13T02:51:19;72.28;;;9.68;;
66118;SDS011;52912;48.564;9.302;2022-11-13T02:53:45;99.18;;;10.23;;
66118;SDS011;52912;48.564;9.302;2022-11-13T02:56:10;175.80;;;10.63;;
66118;SDS011;52912;48.564;9.302;2022-11-13T02:58:37;122.75;;;9.82;;
66118;SDS011;52912;48.564;9.302;2022-11-13T03:01:03;99.72;;;10.35;;
66118;SDS011;52912;48.564;9.302;2022-11-13T03:03:28;208.55;;;11.02;;
66118;SDS011;52912;48.564;9.302;2022-11-13T03:05:54;173.60;;;10.57;;
66118;SDS011;52912;48.564;9.302;2022-11-13T03:08:19;101.95;;;9.23;;
66118;SDS011;52912;48.564;9.302;2022-11-13T03:10:45;58.42;;;7.82;;
66118;SDS011;52912;48.564;9.302;2022-11-13T03:13:10;34.25;;;8.05;;
66118;SDS011;52912;48.564;9.302;2022-11-13T03:15:37;42.75;;;7.88;;
66118;SDS011;52912;48.564;9.302;2022-11-13T03:18:03;151.55;;;10.15;;
66118;SDS011;52912;48.564;9.302;2022-11-13T03:20:29;32.88;;;7.93;;
66118;SDS011;52912;48.564;9.302;2022-11-13T03:22:55;112.07;;;9.30;;
66118;SDS011;52912;48.564;9.302;2022-11-13T03:25:21;151.10;;;9.45;;
66118;SDS011;52912;48.564;9.302;2022-11-13T03:27:46;71.90;;;8.25;;
66118;SDS011;52912;48.564;9.302;2022-11-13T03:30:12;157.25;;;10.30;;
66118;SDS011;52912;48.564;9.302;2022-11-13T03:32:39;68.80;;;8.32;;
66118;SDS011;52912;48.564;9.302;2022-11-13T03:35:04;73.25;;;8.02;;
66118;SDS011;52912;48.564;9.302;2022-11-13T03:37:30;136.50;;;9.95;;
66118;SDS011;52912;48.564;9.302;2022-11-13T03:39:56;194.60;;;11.15;;
66118;SDS011;52912;48.564;9.302;2022-11-13T03:42:21;102.82;;;9.10;;
66118;SDS011;52912;48.564;9.302;2022-11-13T03:44:47;101.90;;;8.90;;
66118;SDS011;52912;48.564;9.302;2022-11-13T03:47:12;252.00;;;12.13;;
66118;SDS011;52912;48.564;9.302;2022-11-13T03:49:40;160.95;;;9.77;;
66118;SDS011;52912;48.564;9.302;2022-11-13T03:52:05;109.65;;;9.63;;
66118;SDS011;52912;48.564;9.302;2022-11-13T03:54:31;228.25;;;10.50;;
66118;SDS011;52912;48.564;9.302;2022-11-13T03:56:56;88.68;;;8.80;;
66118;SDS011;52912;48.564;9.302;2022-11-13T03:59:22;317.30;;;13.25;;
66118;SDS011;52912;48.564;9.302;2022-11-13T04:01:47;218.23;;;11.15;;
66118;SDS011;52912;48.564;9.302;2022-11-13T04:04:13;345.88;;;13.15;;
66118;SDS011;52912;48.564;9.302;2022-11-13T04:06:40;300.08;;;13.27;;
66118;SDS011;52912;48.564;9.302;2022-11-13T04:09:06;201.35;;;10.85;;
66118;SDS011;52912;48.564;9.302;2022-11-13T04:11:31;91.88;;;10.15;;
66118;SDS011;52912;48.564;9.302;2022-11-13T04:13:57;193.70;;;10.48;;
66118;SDS011;52912;48.564;9.302;2022-11-13T04:16:22;170.55;;;9.18;;
66118;SDS011;52912;48.564;9.302;2022-11-13T04:18:48;76.25;;;8.27;;
66118;SDS011;52912;48.564;9.302;2022-11-13T04:21:13;126.97;;;8.73;;
66118;SDS011;52912;48.564;9.302;2022-11-13T04:23:40;190.50;;;10.25;;
66118;SDS011;52912;48.564;9.302;2022-11-13T04:26:05;174.70;;;9.98;;
66118;SDS011;52912;48.564;9.302;2022-11-13T04:28:31;158.38;;;9.00;;
66118;SDS011;52912;48.564;9.302;2022-11-13T04:30:56;149.15;;;8.90;;
66118;SDS011;52912;48.564;9.302;2022-11-13T04:33:22;173.85;;;8.95;;
66118;SDS011;52912;48.564;9.302;2022-11-13T04:35:47;187.57;;;9.55;;
66118;SDS011;52912;48.564;9.302;2022-11-13T04:38:13;224.32;;;10.77;;
66118;SDS011;52912;48.564;9.302;2022-11-13T04:40:40;191.85;;;9.07;;
66118;SDS011;52912;48.564;9.302;2022-11-13T04:43:06;56.75;;;7.82;;
66118;SDS011;52912;48.564;9.302;2022-11-13T04:45:31;50.92;;;6.85;;
66118;SDS011;52912;48.564;9.302;2022-11-13T04:47:57;144.35;;;8.32;;
66118;SDS011;52912;48.564;9.302;2022-11-13T04:50:23;135.52;;;7.75;;
66118;SDS011;52912;48.564;9.302;2022-11-13T04:52:49;101.40;;;6.82;;
66118;SDS011;52912;48.564;9.302;2022-11-13T04:55:14;120.25;;;8.10;;
66118;SDS011;52912;48.564;9.302;2022-11-13T04:57:41;126.78;;;8.70;;
66118;SDS011;52912;48.564;9.302;2022-11-13T05:00:07;140.60;;;8.48;;
66118;SDS011;52912;48.564;9.302;2022-11-13T05:02:34;133.18;;;8.98;;
66118;SDS011;52912;48.564;9.302;2022-11-13T05:05:00;197.95;;;9.35;;
66118;SDS011;52912;48.564;9.302;2022-11-13T05:07:26;73.75;;;7.35;;
66118;SDS011;52912;48.564;9.302;2022-11-13T05:09:51;104.40;;;7.25;;
66118;SDS011;52912;48.564;9.302;2022-11-13T05:12:17;69.45;;;7.55;;
66118;SDS011;52912;48.564;9.302;2022-11-13T05:14:44;148.32;;;7.93;;
66118;SDS011;52912;48.564;9.302;2022-11-13T05:17:10;170.90;;;8.52;;
66118;SDS011;52912;48.564;9.302;2022-11-13T05:19:36;80.15;;;7.25;;
66118;SDS011;52912;48.564;9.302;2022-11-13T05:22:02;107.18;;;7.13;;
66118;SDS011;52912;48.564;9.302;2022-11-13T05:24:28;159.52;;;8.93;;
66118;SDS011;52912;48.564;9.302;2022-11-13T05:26:53;37.75;;;6.78;;
66118;SDS011;52912;48.564;9.302;2022-11-13T05:29:19;94.35;;;7.13;;
66118;SDS011;52912;48.564;9.302;2022-11-13T05:31:49;153.55;;;7.88;;
66118;SDS011;52912;48.564;9.302;2022-11-13T05:34:20;126.05;;;8.00;;
66118;SDS011;52912;48.564;9.302;2022-11-13T05:36:47;68.05;;;7.03;;
66118;SDS011;52912;48.564;9.302;2022-11-13T10:50:22;14.23;;;9.98;;
66118;SDS011;52912;48.564;9.302;2022-11-13T10:52:49;16.88;;;11.10;;
66118;SDS011;52912;48.564;9.302;2022-11-13T10:55:20;33.03;;;16.48;;
66118;SDS011;52912;48.564;9.302;2022-11-13T10:57:55;15.98;;;10.00;;
66118;SDS011;52912;48.564;9.302;2022-11-13T11:00:23;15.07;;;10.18;;
66118;SDS011;52912;48.564;9.302;2022-11-13T11:02:51;14.40;;;9.70;;
66118;SDS011;52912;48.564;9.302;2022-11-13T11:05:18;11.65;;;8.57;;
66118;SDS011;52912;48.564;9.302;2022-11-13T11:07:44;13.27;;;9.67;;
66118;SDS011;52912;48.564;9.302;2022-11-13T11:10:21;25.95;;;14.25;;
66118;SDS011;52912;48.564;9.302;2022-11-13T11:12:51;13.48;;;9.40;;
66118;SDS011;52912;48.564;9.302;2022-11-13T11:15:19;13.48;;;9.40;;
66118;SDS011;52912;48.564;9.302;2022-11-13T11:17:49;23.50;;;13.90;;
66118;SDS011;52912;48.564;9.302;2022-11-13T11:20:22;19.17;;;11.48;;
66118;SDS011;52912;48.564;9.302;2022-11-13T11:22:57;27.55;;;13.65;;
66118;SDS011;52912;48.564;9.302;2022-11-13T11:25:29;13.40;;;9.77;;
66118;SDS011;52912;48.564;9.302;2022-11-13T11:28:01;14.07;;;9.55;;
66118;SDS011;52912;48.564;9.302;2022-11-13T11:30:33;17.88;;;12.00;;
66118;SDS011;52912;48.564;9.302;2022-11-13T11:33:05;15.13;;;10.60;;
66118;SDS011;52912;48.564;9.302;2022-11-13T11:35:38;14.48;;;10.68;;
66118;SDS011;52912;48.564;9.302;2022-11-13T11:38:08;15.15;;;10.57;;
66118;SDS011;52912;48.564;9.302;2022-11-13T11:40:40;15.40;;;11.02;;
66118;SDS011;52912;48.564;9.302;2022-11-13T11:45:58;15.20;;;10.05;;
66118;SDS011;52912;48.564;9.302;2022-11-13T11:48:24;14.45;;;10.82;;
66118;SDS011;52912;48.564;9.302;2022-11-13T11:50:56;12.25;;;9.35;;
66118;SDS011;52912;48.564;9.302;2022-11-13T11:53:29;13.13;;;9.88;;
66118;SDS011;52912;48.564;9.302;2022-11-13T11:56:11;12.25;;;9.00;;
66118;SDS011;52912;48.564;9.302;2022-11-13T12:01:56;13.07;;;9.70;;
66118;SDS011;52912;48.564;9.302;2022-11-13T12:04:38;12.60;;;9.63;;
66118;SDS011;52912;48.564;9.302;2022-11-13T12:07:21;15.68;;;12.10;;
66118;SDS011;52912;48.564;9.302;2022-11-13T12:09:57;13.23;;;10.07;;
66118;SDS011;52912;48.564;9.302;2022-11-13T12:12:39;13.55;;;9.95;;
66118;SDS011;52912;48.564;9.302;2022-11-13T12:15:15;12.52;;;9.07;;
66118;SDS011;52912;48.564;9.302;2022-11-13T12:17:47;12.07;;;9.50;;
66118;SDS011;52912;48.564;9.302;2022-11-13T12:20:24;13.88;;;10.10;;
66118;SDS011;52912;48.564;9.302;2022-11-13T12:22:58;13.73;;;10.05;;
66118;SDS011;52912;48.564;9.302;2022-11-13T12:25:32;13.43;;;9.75;;
66118;SDS011;52912;48.564;9.302;2022-11-13T12:28:02;13.30;;;10.02;;
66118;SDS011;52912;48.564;9.302;2022-11-13T12:30:36;13.15;;;9.50;;
66118;SDS011;52912;48.564;9.302;2022-11-13T12:33:16;12.40;;;9.68;;
66118;SDS011;52912;48.564;9.302;2022-11-13T12:35:48;13.73;;;9.57;;
66118;SDS011;52912;48.564;9.302;2022-11-13T12:38:20;14.32;;;10.00;;
66118;SDS011;52912;48.564;9.302;2022-11-13T12:40:55;14.40;;;10.18;;
66118;SDS011;52912;48.564;9.302;2022-11-13T12:43:34;15.85;;;10.90;;
66118;SDS011;52912;48.564;9.302;2022-11-13T12:46:12;13.55;;;10.18;;
66118;SDS011;52912;48.564;9.302;2022-11-13T12:48:38;11.23;;;8.70;;
66118;SDS011;52912;48.564;9.302;2022-11-13T12:51:07;13.13;;;9.40;;
66118;SDS011;52912;48.564;9.302;2022-11-13T12:53:43;12.18;;;9.52;;
66118;SDS011;52912;48.564;9.302;2022-11-13T12:56:15;12.70;;;8.90;;
66118;SDS011;52912;48.564;9.302;2022-11-13T12:58:53;11.68;;;8.40;;
66118;SDS011;52912;48.564;9.302;2022-11-13T13:01:21;12.03;;;8.30;;
66118;SDS011;52912;48.564;9.302;2022-11-13T13:03:57;12.38;;;9.27;;
66118;SDS011;52912;48.564;9.302;2022-11-13T13:09:13;11.93;;;8.88;;
66118;SDS011;52912;48.564;9.302;2022-11-13T13:11:50;12.40;;;9.32;;
66118;SDS011;52912;48.564;9.302;2022-11-13T13:14:27;11.73;;;9.07;;
66118;SDS011;52912;48.564;9.302;2022-11-13T13:17:06;9.27;;;7.68;;
66118;SDS011;52912;48.564;9.302;2022-11-13T13:19:42;9.68;;;7.85;;
66118;SDS011;52912;48.564;9.302;2022-11-13T13:22:09;12.07;;;8.88;;
66118;SDS011;52912;48.564;9.302;2022-11-13T13:24:37;10.13;;;7.85;;
66118;SDS011;52912;48.564;9.302;2022-11-13T13:27:14;11.57;;;8.40;;
66118;SDS011;52912;48.564;9.302;2022-11-13T13:29:45;12.02;;;8.52;;
66118;SDS011;52912;48.564;9.302;2022-11-13T13:32:13;10.95;;;8.63;;
66118;SDS011;52912;48.564;9.302;2022-11-13T13:34:45;10.52;;;8.45;;
66118;SDS011;52912;48.564;9.302;2022-11-13T13:37:21;10.43;;;8.35;;
66118;SDS011;52912;48.564;9.302;2022-11-13T13:39:57;11.32;;;8.48;;
66118;SDS011;52912;48.564;9.302;2022-11-13T13:42:39;11.77;;;8.20;;
66118;SDS011;52912;48.564;9.302;2022-11-13T13:45:16;11.93;;;8.82;;
66118;SDS011;52912;48.564;9.302;2022-11-13T13:47:50;10.93;;;8.45;;
66118;SDS011;52912;48.564;9.302;2022-11-13T13:50:19;9.48;;;7.90;;
66118;SDS011;52912;48.564;9.302;2022-11-13T13:52:46;11.38;;;8.32;;
66118;SDS011;52912;48.564;9.302;2022-11-13T13:55:17;12.35;;;8.93;;
66118;SDS011;52912;48.564;9.302;2022-11-13T13:57:46;13.43;;;8.30;;
66118;SDS011;52912;48.564;9.302;2022-11-13T14:00:12;10.48;;;7.47;;
66118;SDS011;52912;48.564;9.302;2022-11-13T14:02:43;10.85;;;8.43;;
66118;SDS011;52912;48.564;9.302;2022-11-13T14:05:16;11.80;;;8.65;;
66118;SDS011;52912;48.564;9.302;2022-11-13T14:07:51;11.40;;;8.60;;
66118;SDS011;52912;48.564;9.302;2022-11-13T14:10:19;10.73;;;8.57;;
66118;SDS011;52912;48.564;9.302;2022-11-13T14:12:45;9.80;;;7.88;;
66118;SDS011;52912;48.564;9.302;2022-11-13T14:15:22;10.30;;;8.40;;
66118;SDS011;52912;48.564;9.302;2022-11-13T14:17:49;11.93;;;8.67;;
66118;SDS011;52912;48.564;9.302;2022-11-13T14:20:16;11.07;;;8.63;;
66118;SDS011;52912;48.564;9.302;2022-11-13T14:22:42;10.93;;;8.93;;
66118;SDS011;52912;48.564;9.302;2022-11-13T14:25:13;11.15;;;8.30;;
66118;SDS011;52912;48.564;9.302;2022-11-13T14:27:43;12.70;;;9.00;;
66118;SDS011;52912;48.564;9.302;2022-11-13T14:30:20;13.75;;;8.85;;
66118;SDS011;52912;48.564;9.302;2022-11-13T14:32:47;12.85;;;9.60;;
66118;SDS011;52912;48.564;9.302;2022-11-13T14:35:15;12.95;;;10.40;;
66118;SDS011;52912;48.564;9.302;2022-11-13T14:37:43;16.05;;;11.90;;
66118;SDS011;52912;48.564;9.302;2022-11-13T14:40:13;12.75;;;9.15;;
66118;SDS011;52912;48.564;9.302;2022-11-13T14:42:48;14.80;;;9.85;;
66118;SDS011;52912;48.564;9.302;2022-11-13T14:45:17;15.25;;;11.75;;
66118;SDS011;52912;48.564;9.302;2022-11-13T14:47:53;15.90;;;11.50;;
66118;SDS011;52912;48.564;9.302;2022-11-13T14:50:21;13.65;;;11.07;;
66118;SDS011;52912;48.564;9.302;2022-11-13T14:52:55;14.85;;;10.25;;
66118;SDS011;52912;48.564;9.302;2022-11-13T14:55:22;14.65;;;10.50;;
66118;SDS011;52912;48.564;9.302;2022-11-13T14:57:51;14.55;;;10.63;;
66118;SDS011;52912;48.564;9.302;2022-11-13T15:00:18;18.38;;;13.25;;
66118;SDS011;52912;48.564;9.302;2022-11-13T15:02:51;14.80;;;10.25;;
66118;SDS011;52912;48.564;9.302;2022-11-13T15:05:17;12.20;;;9.40;;
66118;SDS011;52912;48.564;9.302;2022-11-13T15:07:43;13.13;;;9.65;;
66118;SDS011;52912;48.564;9.302;2022-11-13T15:10:09;13.00;;;9.63;;
66118;SDS011;52912;48.564;9.302;2022-11-13T15:12:36;12.77;;;9.23;;
66118;SDS011;52912;48.564;9.302;2022-11-13T15:15:04;12.23;;;9.18;;
66118;SDS011;52912;48.564;9.302;2022-11-13T15:17:29;12.43;;;9.40;;
66118;SDS011;52912;48.564;9.302;2022-11-13T15:19:55;15.05;;;11.02;;
66118;SDS011;52912;48.564;9.302;2022-11-13T15:22:21;13.23;;;9.82;;
66118;SDS011;52912;48.564;9.302;2022-11-13T15:24:47;12.52;;;9.05;;
66118;SDS011;52912;48.564;9.302;2022-11-13T15:27:13;12.65;;;9.40;;
66118;SDS011;52912;48.564;9.302;2022-11-13T15:29:39;13.18;;;9.50;;
66118;SDS011;52912;48.564;9.302;2022-11-13T15:32:08;13.13;;;10.00;;
66118;SDS011;52912;48.564;9.302;2022-11-13T15:34:34;35.80;;;17.65;;
66118;SDS011;52912;48.564;9.302;2022-11-13T15:37:00;14.57;;;10.27;;
66118;SDS011;52912;48.564;9.302;2022-11-13T15:39:27;13.15;;;9.95;;
66118;SDS011;52912;48.564;9.302;2022-11-13T15:41:52;14.82;;;10.15;;
66118;SDS011;52912;48.564;9.302;2022-11-13T15:44:18;18.20;;;11.60;;
66118;SDS011;52912;48.564;9.302;2022-11-13T15:46:43;16.67;;;12.07;;
66118;SDS011;52912;48.564;9.302;2022-11-13T15:49:10;18.08;;;12.98;;
66118;SDS011;52912;48.564;9.302;2022-11-13T15:51:36;16.92;;;12.48;;
66118;SDS011;52912;48.564;9.302;2022-11-13T15:54:05;17.17;;;12.20;;
66118;SDS011;52912;48.564;9.302;2022-11-13T15:56:37;12.77;;;9.43;;
66118;SDS011;52912;48.564;9.302;2022-11-13T15:59:03;15.52;;;10.07;;
66118;SDS011;52912;48.564;9.302;2022-11-13T16:01:29;12.40;;;9.05;;
66118;SDS011;52912;48.564;9.302;2022-11-13T16:03:54;16.65;;;11.55;;
66118;SDS011;52912;48.564;9.302;2022-11-13T16:06:21;17.25;;;11.27;;
66118;SDS011;52912;48.564;9.302;2022-11-13T16:08:48;23.70;;;14.25;;
66118;SDS011;52912;48.564;9.302;2022-11-13T16:11:13;27.38;;;15.95;;
66118;SDS011;52912;48.564;9.302;2022-11-13T16:13:39;25.15;;;15.45;;
66118;SDS011;52912;48.564;9.302;2022-11-13T16:16:07;19.35;;;13.13;;
66118;SDS011;52912;48.564;9.302;2022-11-13T16:18:33;22.58;;;13.23;;
66118;SDS011;52912;48.564;9.302;2022-11-13T16:20:58;17.90;;;12.27;;
66118;SDS011;52912;48.564;9.302;2022-11-13T16:23:25;17.83;;;12.45;;
66118;SDS011;52912;48.564;9.302;2022-11-13T16:25:51;25.02;;;15.32;;
66118;SDS011;52912;48.564;9.302;2022-11-13T16:28:18;21.90;;;14.73;;
66118;SDS011;52912;48.564;9.302;2022-11-13T16:30:44;43.00;;;28.33;;
66118;SDS011;52912;48.564;9.302;2022-11-13T16:33:10;25.30;;;16.45;;
66118;SDS011;52912;48.564;9.302;2022-11-13T16:35:36;26.10;;;15.60;;
66118;SDS011;52912;48.564;9.302;2022-11-13T16:38:02;19.23;;;13.80;;
66118;SDS011;52912;48.564;9.302;2022-11-13T16:40:35;15.50;;;11.43;;
66118;SDS011;52912;48.564;9.302;2022-11-13T16:43:01;15.13;;;10.80;;
66118;SDS011;52912;48.564;9.302;2022-11-13T16:45:26;15.65;;;10.75;;
66118;SDS011;52912;48.564;9.302;2022-11-13T16:47:52;15.73;;;11.25;;
66118;SDS011;52912;48.564;9.302;2022-11-13T16:50:18;16.67;;;11.32;;
66118;SDS011;52912;48.564;9.302;2022-11-13T16:52:44;21.45;;;13.52;;
66118;SDS011;52912;48.564;9.302;2022-11-13T16:55:10;21.65;;;14.13;;
66118;SDS011;52912;48.564;9.302;2022-11-13T16:57:37;19.23;;;13.27;;
66118;SDS011;52912;48.564;9.302;2022-11-13T17:00:04;19.05;;;12.57;;
66118;SDS011;52912;48.564;9.302;2022-11-13T17:02:31;19.52;;;12.38;;
66118;SDS011;52912;48.564;9.302;2022-11-13T17:04:56;17.88;;;12.90;;
66118;SDS011;52912;48.564;9.302;2022-11-13T17:07:22;20.17;;;12.45;;
66118;SDS011;52912;48.564;9.302;2022-11-13T17:09:47;17.42;;;12.38;;
66118;SDS011;52912;48.564;9.302;2022-11-13T17:12:13;21.45;;;13.50;;
66118;SDS011;52912;48.564;9.302;2022-11-13T17:14:40;21.27;;;15.45;;
66118;SDS011;52912;48.564;9.302;2022-11-13T17:17:06;24.95;;;15.50;;
66118;SDS011;52912;48.564;9.302;2022-11-13T17:19:34;24.15;;;17.10;;
66118;SDS011;52912;48.564;9.302;2022-11-13T17:22:00;35.72;;;23.58;;
66118;SDS011;52912;48.564;9.302;2022-11-13T17:24:25;36.45;;;21.08;;
66118;SDS011;52912;48.564;9.302;2022-11-13T17:26:51;29.55;;;17.70;;
66118;SDS011;52912;48.564;9.302;2022-11-13T17:29:16;27.52;;;16.77;;
66118;SDS011;52912;48.564;9.302;2022-11-13T17:31:43;25.38;;;16.33;;
66118;SDS011;52912;48.564;9.302;2022-11-13T17:34:08;23.13;;;14.70;;
66118;SDS011;52912;48.564;9.302;2022-11-13T17:36:34;20.52;;;13.48;;
66118;SDS011;52912;48.564;9.302;2022-11-13T17:38:59;21.30;;;14.20;;
66118;SDS011;52912;48.564;9.302;2022-11-13T17:41:25;18.55;;;12.10;;
66118;SDS011;52912;48.564;9.302;2022-11-13T17:43:50;20.75;;;13.80;;
66118;SDS011;52912;48.564;9.302;2022-11-13T17:46:16;21.20;;;13.75;;
66118;SDS011;52912;48.564;9.302;2022-11-13T17:48:43;20.48;;;14.40;;
66118;SDS011;52912;48.564;9.302;2022-11-13T17:51:10;21.83;;;13.68;;
66118;SDS011;52912;48.564;9.302;2022-11-13T17:53:36;25.38;;;14.02;;
66118;SDS011;52912;48.564;9.302;2022-11-13T17:56:03;23.40;;;14.80;;
66118;SDS011;52912;48.564;9.302;2022-11-13T17:58:30;27.50;;;18.35;;
66118;SDS011;52912;48.564;9.302;2022-11-13T18:01:04;32.10;;;18.77;;
66118;SDS011;52912;48.564;9.302;2022-11-13T18:03:31;29.65;;;17.77;;
66118;SDS011;52912;48.564;9.302;2022-11-13T18:06:00;27.85;;;18.08;;
66118;SDS011;52912;48.564;9.302;2022-11-13T18:08:28;35.17;;;20.95;;
66118;SDS011;52912;48.564;9.302;2022-11-13T18:10:53;38.38;;;24.33;;
66118;SDS011;52912;48.564;9.302;2022-11-13T18:13:19;38.35;;;23.52;;
66118;SDS011;52912;48.564;9.302;2022-11-13T18:15:44;63.78;;;33.22;;
66118;SDS011;52912;48.564;9.302;2022-11-13T18:18:09;103.00;;;54.08;;
66118;SDS011;52912;48.564;9.302;2022-11-13T18:20:37;90.72;;;44.47;;
66118;SDS011;52912;48.564;9.302;2022-11-13T18:23:05;89.70;;;48.35;;
66118;SDS011;52912;48.564;9.302;2022-11-13T18:25:33;65.78;;;34.28;;
66118;SDS011;52912;48.564;9.302;2022-11-13T18:27:59;54.97;;;32.20;;
66118;SDS011;52912;48.564;9.302;2022-11-13T18:30:24;47.88;;;27.08;;
66118;SDS011;52912;48.564;9.302;2022-11-13T18:32:50;50.38;;;28.42;;
66118;SDS011;52912;48.564;9.302;2022-11-13T18:35:15;48.75;;;26.20;;
66118;SDS011;52912;48.564;9.302;2022-11-13T18:37:40;30.27;;;18.20;;
66118;SDS011;52912;48.564;9.302;2022-11-13T18:40:08;31.92;;;19.95;;
66118;SDS011;52912;48.564;9.302;2022-11-13T18:42:34;44.90;;;31.20;;
66118;SDS011;52912;48.564;9.302;2022-11-13T18:45:00;44.15;;;29.80;;
66118;SDS011;52912;48.564;9.302;2022-11-13T18:47:25;32.83;;;22.05;;
66118;SDS011;52912;48.564;9.302;2022-11-13T18:49:51;33.53;;;24.30;;
66118;SDS011;52912;48.564;9.302;2022-11-13T18:52:16;28.67;;;19.10;;
66118;SDS011;52912;48.564;9.302;2022-11-13T18:54:42;28.17;;;18.45;;
66118;SDS011;52912;48.564;9.302;2022-11-13T18:57:08;23.20;;;16.48;;
66118;SDS011;52912;48.564;9.302;2022-11-13T18:59:34;30.40;;;19.77;;
66118;SDS011;52912;48.564;9.302;2022-11-13T19:01:59;35.28;;;22.38;;
66118;SDS011;52912;48.564;9.302;2022-11-13T19:04:25;47.72;;;25.42;;
66118;SDS011;52912;48.564;9.302;2022-11-13T19:06:50;41.50;;;23.20;;
66118;SDS011;52912;48.564;9.302;2022-11-13T19:09:16;30.10;;;18.48;;
66118;SDS011;52912;48.564;9.302;2022-11-13T19:11:42;31.27;;;19.23;;
66118;SDS011;52912;48.564;9.302;2022-11-13T19:14:11;28.30;;;17.92;;
66118;SDS011;52912;48.564;9.302;2022-11-13T19:16:38;26.73;;;17.13;;
66118;SDS011;52912;48.564;9.302;2022-11-13T19:19:12;24.73;;;14.98;;
66118;SDS011;52912;48.564;9.302;2022-11-13T19:24:27;21.23;;;14.32;;
66118;SDS011;52912;48.564;9.302;2022-11-13T19:26:52;23.23;;;14.55;;
66118;SDS011;52912;48.564;9.302;2022-11-13T19:29:19;25.20;;;16.30;;
66118;SDS011;52912;48.564;9.302;2022-11-13T19:31:45;25.30;;;17.02;;
66118;SDS011;52912;48.564;9.302;2022-11-13T19:34:10;27.25;;;16.00;;
66118;SDS011;52912;48.564;9.302;2022-11-13T19:36:37;22.02;;;13.88;;
66118;SDS011;52912;48.564;9.302;2022-11-13T19:39:03;22.92;;;14.32;;
66118;SDS011;52912;48.564;9.302;2022-11-13T19:41:29;24.30;;;14.63;;
66118;SDS011;52912;48.564;9.302;2022-11-13T19:43:56;26.00;;;15.77;;
66118;SDS011;52912;48.564;9.302;2022-11-13T19:46:23;26.52;;;16.02;;
66118;SDS011;52912;48.564;9.302;2022-11-13T19:48:50;25.05;;;16.38;;
66118;SDS011;52912;48.564;9.302;2022-11-13T19:51:19;23.50;;;14.70;;
66118;SDS011;52912;48.564;9.302;2022-11-13T19:53:46;24.58;;;16.20;;